^^
Saratoga-Weather Station Historical Data
Daily Summary for July 27, 2020 Units:  English    Metric   Both
Daily Weekly Monthly Yearly Custom
  High: Low: Average:
Temperature: 39.9 °F 33.1 °F 36.1 °F
Dew Point: 39.4 °F 31.8 °F 33.8 °F
Humidity: 98% 84% 91%
Wind Speed: 31.1mph 0mph 5.5mph
Wind Gust: 35mph - -
Wind- - SSW
Pressure: 29.9 in 29.1 in -
Precipitation: 0.58 in    
Historical Graphs
 
 
Tabular Data for July 27, 2020
Time Temperature Dew Point Pressure Wind Wind Speed Wind Gust Humidity Rainfall Rate (Hourly) solar
00:04 36.7 °F 34 °F 29.8 in WSW 2 mph 2 mph 90% 0 in 0 W/m2
00:09 36.7 °F 34 °F 29.8 in SE 0.9 mph 2 mph 90% 0 in 0 W/m2
00:14 36.7 °F 33.8 °F 29.8 in West 2 mph 3 mph 89% 0 in 0 W/m2
00:19 36.7 °F 34 °F 29.8 in WSW 2.9 mph 11 mph 90% 0 in 0 W/m2
00:24 36.7 °F 34 °F 29.8 in West 0.9 mph 2 mph 90% 0 in 0 W/m2
00:29 36.7 °F 34 °F 29.8 in WNW 2 mph 4 mph 90% 0 in 0 W/m2
00:34 36.5 °F 33.8 °F 29.8 in WNW 4.9 mph 6 mph 90% 0 in 0 W/m2
00:39 36.7 °F 34 °F 29.8 in WNW 0.9 mph 4 mph 90% 0 in 0 W/m2
00:44 36.7 °F 34 °F 29.8 in West 2 mph 3 mph 90% 0 in 0 W/m2
00:49 36.7 °F 34 °F 29.8 in West 0.9 mph 8 mph 90% 0 in 0 W/m2
00:54 36.5 °F 33.8 °F 29.8 in SSW 0.9 mph 4 mph 90% 0 in 0 W/m2
00:59 36.3 °F 33.6 °F 29.8 in Calm   6 mph 90% 0 in 0 W/m2
01:04 36.1 °F 33.4 °F 29.8 in NW 2.9 mph 4 mph 90% 0 in 0 W/m2
01:09 36.1 °F 33.4 °F 29.8 in WNW 2 mph 8 mph 90% 0 in 0 W/m2
01:14 36.1 °F 33.4 °F 29.8 in West 2.9 mph 6 mph 90% 0 in 0 W/m2
01:19 36.1 °F 33.8 °F 29.8 in West 2 mph 7 mph 91% 0 in 0 W/m2
01:24 36.1 °F 33.8 °F 29.8 in Calm   2 mph 91% 0 in 0 W/m2
01:29 36.1 °F 33.8 °F 29.8 in WNW 2.9 mph 4 mph 91% 0 in 0 W/m2
01:34 36.1 °F 33.8 °F 29.8 in NW 0.9 mph 5 mph 91% 0 in 0 W/m2
01:39 36.1 °F 33.8 °F 29.8 in WNW 0.9 mph 4 mph 91% 0 in 0 W/m2
01:44 36.1 °F 33.8 °F 29.8 in WNW 0.9 mph 5 mph 91% 0 in 0 W/m2
01:49 36.1 °F 33.8 °F 29.8 in NW 2 mph 2 mph 91% 0 in 0 W/m2
01:54 36.1 °F 33.8 °F 29.8 in NW 2 mph 4 mph 91% 0 in 0 W/m2
01:59 36 °F 33.6 °F 29.8 in West 2 mph 3 mph 91% 0 in 0 W/m2
02:04 36 °F 33.6 °F 29.8 in Calm   3 mph 91% 0 in 0 W/m2
02:09 36.1 °F 33.8 °F 29.8 in WNW 2.9 mph 3 mph 91% 0 in 0 W/m2
02:14 36.1 °F 33.8 °F 29.8 in Calm   1 mph 91% 0 in 0 W/m2
02:19 36.1 °F 33.8 °F 29.8 in Calm   3 mph 91% 0.01 in 0 W/m2
02:24 36.1 °F 33.8 °F 29.8 in NNW 2.9 mph 3 mph 91% 0.01 in 0 W/m2
02:29 36 °F 33.6 °F 29.8 in West 2 mph 2 mph 91% 0.01 in 0 W/m2
02:34 36 °F 33.8 °F 29.8 in WNW 2 mph 2 mph 92% 0.01 in 0 W/m2
02:39 35.8 °F 33.6 °F 29.8 in West 4 mph 8 mph 92% 0.01 in 0 W/m2
02:44 35.4 °F 33.3 °F 29.8 in Calm   2 mph 92% 0.02 in 0 W/m2
02:49 35.4 °F 33.3 °F 29.8 in SSW 2.9 mph 5 mph 92% 0.02 in 0 W/m2
02:54 35.2 °F 33.1 °F 29.8 in West 2 mph 2 mph 92% 0.02 in 0 W/m2
02:59 35.2 °F 33.4 °F 29.8 in WNW 0.9 mph 2 mph 93% 0.02 in 0 W/m2
03:04 35.2 °F 33.4 °F 29.8 in WNW 0.9 mph 2 mph 93% 0.02 in 0 W/m2
03:09 35.2 °F 33.4 °F 29.8 in West 2 mph 5 mph 93% 0.02 in 0 W/m2
03:14 35.2 °F 33.4 °F 29.8 in WNW 2.9 mph 3 mph 93% 0.02 in 0 W/m2
03:19 35.2 °F 33.4 °F 29.8 in Calm   6 mph 93% 0.02 in 0 W/m2
03:24 35.2 °F 33.4 °F 29.8 in WSW 0.9 mph 2 mph 93% 0.02 in 0 W/m2
03:29 35.2 °F 33.4 °F 29.8 in West 0.9 mph 6 mph 93% 0.02 in 0 W/m2
03:34 35.4 °F 33.8 °F 29.8 in Calm   2 mph 94% 0.02 in 0 W/m2
03:39 35.4 °F 33.8 °F 29.8 in West 0.9 mph 3 mph 94% 0.02 in 0 W/m2
03:44 35.4 °F 33.8 °F 29.8 in WSW 0.9 mph 2 mph 94% 0.01 in 0 W/m2
03:49 35.6 °F 34 °F 29.8 in West 0.9 mph 7 mph 94% 0.01 in 0 W/m2
03:54 35.8 °F 34.2 °F 29.8 in WNW 0.9 mph 4 mph 94% 0 in 0 W/m2
03:59 35.8 °F 34 °F 29.8 in West 0.9 mph 7 mph 93% 0 in 0 W/m2
04:04 35.8 °F 34 °F 29.8 in WSW 2.9 mph 4 mph 93% 0 in 0 W/m2
04:09 36 °F 34.2 °F 29.8 in Calm   6 mph 93% 0 in 0 W/m2
04:14 36 °F 34.2 °F 29.8 in WNW 0.9 mph 2 mph 93% 0 in 0 W/m2
04:19 36 °F 34.2 °F 29.8 in WNW 2 mph 6 mph 93% 0 in 0 W/m2
04:24 36 °F 34.2 °F 29.8 in West 0.9 mph 6 mph 93% 0 in 0 W/m2
04:29 36 °F 34.2 °F 29.8 in Calm   2 mph 93% 0 in 0 W/m2
04:34 36 °F 34.3 °F 29.8 in NW 2.9 mph 3 mph 94% 0 in 0 W/m2
04:39 36 °F 34.2 °F 29.8 in NNW 0.9 mph 1 mph 93% 0 in 0 W/m2
04:44 36.1 °F 34.3 °F 29.8 in WSW 2 mph 6 mph 93% 0 in 0 W/m2
04:49 36.1 °F 34.3 °F 29.8 in Calm   1 mph 93% 0 in 0 W/m2
04:54 36.1 °F 34.3 °F 29.8 in Calm   3 mph 93% 0 in 0 W/m2
04:59 36.1 °F 34.3 °F 29.8 in SW 0.9 mph 2 mph 93% 0 in 0 W/m2
05:04 36.1 °F 34.3 °F 29.8 in West 2 mph 4 mph 93% 0 in 0 W/m2
05:09 36.1 °F 34.3 °F 29.8 in South 0.9 mph 2 mph 93% 0 in 0 W/m2
05:14 36.1 °F 34.3 °F 29.8 in SW 0.9 mph 1 mph 93% 0 in 0 W/m2
05:20 36.1 °F 34.3 °F 29.8 in West 2 mph 6 mph 93% 0 in 0 W/m2
05:25 36.1 °F 34.3 °F 29.8 in WNW 0.9 mph 2 mph 93% 0 in 0 W/m2
05:30 36.1 °F 34.3 °F 29.8 in Calm   1 mph 93% 0 in 0 W/m2
05:35 36.1 °F 34.3 °F 29.8 in West 6 mph 6 mph 93% 0 in 0 W/m2
05:40 36.1 °F 34.3 °F 29.8 in Calm   2 mph 93% 0 in 0 W/m2
05:45 36 °F 34.2 °F 29.7 in WSW 2.9 mph 7 mph 93% 0 in 0 W/m2
05:50 36 °F 34.2 °F 29.7 in NNW 2.9 mph 3 mph 93% 0 in 0 W/m2
05:55 36 °F 34.2 °F 29.7 in WNW 0.9 mph 7 mph 93% 0 in 0 W/m2
06:00 36 °F 34.2 °F 29.7 in NNW 2 mph 2 mph 93% 0 in 0 W/m2
06:05 36 °F 34.2 °F 29.7 in Calm   4 mph 93% 0 in 0 W/m2
06:10 36 °F 34.2 °F 29.7 in SSW 0.9 mph 2 mph 93% 0 in 0 W/m2
06:15 36 °F 34.2 °F 29.7 in NNW 0.9 mph 2 mph 93% 0 in 0 W/m2
06:20 35.8 °F 34 °F 29.7 in NW 2.9 mph 3 mph 93% 0 in 0 W/m2
06:25 35.8 °F 34 °F 29.7 in NW 2.9 mph 5 mph 93% 0 in 0 W/m2
06:30 35.8 °F 34 °F 29.7 in NNE 0.9 mph 2 mph 93% 0 in 0 W/m2
06:35 36 °F 34.2 °F 29.7 in Calm   3 mph 93% 0 in 0 W/m2
06:40 36 °F 33.8 °F 29.7 in North 0.9 mph 2 mph 92% 0 in 0 W/m2
06:45 35.8 °F 33.6 °F 29.7 in NNW 2.9 mph 3 mph 92% 0 in 0 W/m2
06:50 35.8 °F 33.6 °F 29.7 in NE 0.9 mph 2 mph 92% 0 in 0 W/m2
06:55 35.8 °F 33.6 °F 29.7 in NNE 2 mph 3 mph 92% 0 in 0 W/m2
07:00 35.8 °F 33.6 °F 29.7 in East 0.9 mph 1 mph 92% 0 in 0 W/m2
07:05 35.8 °F 33.6 °F 29.7 in NNE 2.9 mph 4 mph 92% 0 in 0 W/m2
07:10 36 °F 33.8 °F 29.7 in NNE 0.9 mph 5 mph 92% 0 in 0 W/m2
07:15 36 °F 33.8 °F 29.7 in West 2.9 mph 6 mph 92% 0 in 0 W/m2
07:20 36 °F 33.8 °F 29.7 in ENE 0.9 mph 3 mph 92% 0 in 0 W/m2
07:25 36 °F 33.8 °F 29.7 in North 0.9 mph 2 mph 92% 0 in 0 W/m2
07:31 36 °F 33.8 °F 29.7 in North 2.9 mph 3 mph 92% 0 in 0 W/m2
07:36 36.1 °F 34 °F 29.7 in NNW 0.9 mph 3 mph 92% 0 in 0 W/m2
07:41 36.1 °F 34 °F 29.7 in NNW 0.9 mph 1 mph 92% 0 in 5 W/m2
07:46 36.1 °F 34 °F 29.7 in NNE 2 mph 2 mph 92% 0 in 7 W/m2
07:51 36.1 °F 34 °F 29.7 in East 2 mph 2 mph 92% 0 in 7 W/m2
07:56 36.3 °F 34.2 °F 29.7 in Calm   3 mph 92% 0 in 11 W/m2
08:01 36.3 °F 34.2 °F 29.7 in Calm     92% 0 in 5 W/m2
08:06 36.3 °F 34.2 °F 29.7 in ENE 2 mph 2 mph 92% 0.01 in 5 W/m2
08:11 36.1 °F 34 °F 29.7 in East 2 mph 4 mph 92% 0.01 in 11 W/m2
08:16 36.1 °F 34 °F 29.7 in NNE 2 mph 9 mph 92% 0.02 in 7 W/m2
08:21 36 °F 33.8 °F 29.7 in NE 2 mph 6 mph 92% 0.02 in 11 W/m2
08:26 36 °F 33.8 °F 29.7 in NE 4.9 mph 9 mph 92% 0.02 in 16 W/m2
08:31 36 °F 33.8 °F 29.7 in Calm   3 mph 92% 0.03 in 12 W/m2
08:36 36 °F 34.2 °F 29.7 in East 6 mph 7 mph 93% 0.03 in 16 W/m2
08:41 36 °F 34.2 °F 29.7 in ENE 2 mph 4 mph 93% 0.03 in 18 W/m2
08:46 35.8 °F 34 °F 29.7 in ESE 2.9 mph 9 mph 93% 0.03 in 19 W/m2
08:51 35.8 °F 34 °F 29.6 in East 4 mph 4 mph 93% 0.03 in 25 W/m2
08:56 35.6 °F 33.8 °F 29.6 in East 4 mph 9 mph 93% 0.03 in 26 W/m2
09:01 35.6 °F 34 °F 29.6 in ESE 6 mph 7 mph 94% 0.03 in 33 W/m2
09:06 35.6 °F 34 °F 29.6 in East 4 mph 9 mph 94% 0.03 in 37 W/m2
09:11 35.8 °F 34.2 °F 29.6 in ENE 2 mph 6 mph 94% 0.03 in 42 W/m2
09:16 35.8 °F 34.2 °F 29.6 in ESE 2 mph 6 mph 94% 0.02 in 46 W/m2
09:21 35.8 °F 34.2 °F 29.6 in ESE 4 mph 8 mph 94% 0.02 in 47 W/m2
09:26 36 °F 34.3 °F 29.6 in East 0.9 mph 4 mph 94% 0.02 in 51 W/m2
09:31 36 °F 34.3 °F 29.6 in ENE 4.9 mph 7 mph 94% 0.01 in 49 W/m2
09:36 36.1 °F 34.5 °F 29.6 in East 6.9 mph 7 mph 94% 0.01 in 47 W/m2
09:41 36.1 °F 34.5 °F 29.6 in ENE 2 mph 8 mph 94% 0.01 in 49 W/m2
09:46 36.3 °F 34.7 °F 29.6 in ENE 2.9 mph 5 mph 94% 0.01 in 54 W/m2
09:51 36.3 °F 34.7 °F 29.6 in NNE 0.9 mph 4 mph 94% 0.01 in 53 W/m2
09:56 36.3 °F 34.7 °F 29.6 in East 2.9 mph 7 mph 94% 0.01 in 56 W/m2
10:01 36.7 °F 34.9 °F 29.6 in ENE 2 mph 7 mph 93% 0.01 in 53 W/m2
10:06 36.7 °F 34.9 °F 29.6 in ENE 4 mph 6 mph 93% 0 in 54 W/m2
10:11 36.7 °F 34.9 °F 29.6 in East 8.9 mph 9 mph 93% 0 in 53 W/m2
10:17 36.9 °F 35.1 °F 29.6 in ENE 4 mph 4 mph 93% 0 in 53 W/m2
10:22 36.9 °F 35.1 °F 29.6 in East 6 mph 9 mph 93% 0 in 49 W/m2
10:27 36.9 °F 35.1 °F 29.5 in East 6 mph 10 mph 93% 0 in 46 W/m2
10:32 36.9 °F 35.1 °F 29.5 in East 2 mph 6 mph 93% 0.01 in 40 W/m2
10:37 36.7 °F 34.9 °F 29.5 in ENE 2.9 mph 7 mph 93% 0.01 in 46 W/m2
10:42 36.7 °F 34.9 °F 29.5 in SE 4 mph 9 mph 93% 0.01 in 42 W/m2
10:47 36.5 °F 34.7 °F 29.5 in ENE 2.9 mph 8 mph 93% 0.01 in 44 W/m2
10:52 36.3 °F 34.5 °F 29.5 in SE 2 mph 11 mph 93% 0.02 in 37 W/m2
10:57 36.3 °F 34.7 °F 29.5 in ENE 6.9 mph 10 mph 94% 0.02 in 37 W/m2
11:02 36.1 °F 34.5 °F 29.5 in ENE 6.9 mph 11 mph 94% 0.02 in 35 W/m2
11:07 36 °F 34.3 °F 29.5 in ENE 2.9 mph 4 mph 94% 0.02 in 39 W/m2
11:12 36 °F 34.3 °F 29.5 in East 2.9 mph 10 mph 94% 0.02 in 33 W/m2
11:17 35.8 °F 34.2 °F 29.5 in East 2 mph 7 mph 94% 0.03 in 30 W/m2
11:22 35.4 °F 33.8 °F 29.5 in ENE 2.9 mph 9 mph 94% 0.04 in 25 W/m2
11:27 35.2 °F 33.6 °F 29.5 in SE 4.9 mph 8 mph 94% 0.04 in 19 W/m2
11:32 35.2 °F 33.6 °F 29.5 in ESE 6 mph 7 mph 94% 0.04 in 19 W/m2
11:37 34.9 °F 33.3 °F 29.5 in ESE 2.9 mph 4 mph 94% 0.04 in 18 W/m2
11:42 34.5 °F 32.9 °F 29.5 in ENE 2.9 mph 7 mph 94% 0.05 in 14 W/m2
11:47 34.2 °F 32.5 °F 29.4 in ESE 4 mph 6 mph 94% 0.05 in 14 W/m2
11:52 34 °F 32.4 °F 29.4 in ESE 2.9 mph 5 mph 94% 0.04 in 14 W/m2
11:57 33.6 °F 32.4 °F 29.4 in ESE 2.9 mph 6 mph 95% 0.04 in 12 W/m2
12:02 33.4 °F 32.2 °F 29.4 in East 2 mph 4 mph 95% 0.04 in 9 W/m2
12:07 33.3 °F 32 °F 29.4 in NE 2.9 mph 3 mph 95% 0.03 in 7 W/m2
12:12 33.3 °F 32 °F 29.4 in Calm   2 mph 95% 0.03 in 7 W/m2
12:17 33.3 °F 32 °F 29.4 in Calm   3 mph 95% 0.02 in 7 W/m2
12:22 33.1 °F 31.8 °F 29.4 in Calm   2 mph 95% 0.02 in 7 W/m2
12:27 33.1 °F 31.8 °F 29.4 in Calm   2 mph 95% 0.02 in 9 W/m2
12:32 33.1 °F 31.8 °F 29.4 in Calm   2 mph 95% 0.01 in 7 W/m2
12:37 33.1 °F 31.8 °F 29.4 in Calm   3 mph 95% 0.01 in 9 W/m2
12:42 33.1 °F 31.8 °F 29.4 in Calm   3 mph 95% 0 in 11 W/m2
12:47 33.1 °F 32 °F 29.4 in ENE 0.9 mph 2 mph 96% 0 in 14 W/m2
12:52 33.1 °F 32 °F 29.4 in Calm   2 mph 96% 0 in 12 W/m2
12:57 33.1 °F 32 °F 29.3 in East 2.9 mph 4 mph 96% 0 in 12 W/m2
13:02 33.1 °F 32 °F 29.3 in ESE 0.9 mph 2 mph 96% 0 in 14 W/m2
13:07 33.1 °F 32 °F 29.3 in ENE 2 mph 3 mph 96% 0 in 21 W/m2
13:12 33.1 °F 32 °F 29.3 in East 2 mph 4 mph 96% 0 in 21 W/m2
13:17 33.1 °F 32 °F 29.3 in ENE 2 mph 7 mph 96% 0 in 18 W/m2
13:22 33.1 °F 32 °F 29.3 in ESE 6 mph 6 mph 96% 0 in 19 W/m2
13:27 33.1 °F 32 °F 29.3 in ENE 2.9 mph 5 mph 96% 0 in 23 W/m2
13:32 33.1 °F 32 °F 29.3 in NE 2 mph 4 mph 96% 0 in 18 W/m2
13:37 33.1 °F 32 °F 29.3 in East 2 mph 4 mph 96% 0 in 19 W/m2
13:42 33.1 °F 32 °F 29.3 in East 6 mph 8 mph 96% 0 in 21 W/m2
13:47 33.1 °F 32 °F 29.3 in NE 4.9 mph 6 mph 96% 0 in 23 W/m2
13:53 33.1 °F 32 °F 29.3 in ESE 2 mph 8 mph 96% 0 in 19 W/m2
13:58 33.3 °F 32.2 °F 29.3 in NE 2 mph 8 mph 96% 0 in 33 W/m2
14:03 33.3 °F 32.2 °F 29.3 in East 4 mph 6 mph 96% 0.01 in 30 W/m2
14:08 33.4 °F 32.4 °F 29.2 in East 2.9 mph 5 mph 96% 0.02 in 28 W/m2
14:13 33.4 °F 32.4 °F 29.2 in NNE 2 mph 8 mph 96% 0.02 in 26 W/m2
14:18 33.4 °F 32.4 °F 29.2 in ENE 4 mph 7 mph 96% 0.02 in 25 W/m2
14:23 33.4 °F 32.4 °F 29.2 in ENE 2.9 mph 6 mph 96% 0.03 in 25 W/m2
14:28 33.6 °F 32.5 °F 29.2 in NE 2 mph 3 mph 96% 0.03 in 25 W/m2
14:33 33.6 °F 32.5 °F 29.2 in ESE 4 mph 5 mph 96% 0.04 in 37 W/m2
14:38 33.8 °F 32.7 °F 29.2 in ESE 2 mph 3 mph 96% 0.05 in 35 W/m2
14:43 33.8 °F 32.7 °F 29.2 in ENE 2 mph 4 mph 96% 0.05 in 30 W/m2
14:48 34 °F 32.9 °F 29.2 in ENE 2 mph 4 mph 96% 0.06 in 30 W/m2
14:53 34 °F 32.9 °F 29.2 in Calm   3 mph 96% 0.06 in 33 W/m2
14:58 34 °F 32.9 °F 29.2 in ENE 2 mph 4 mph 96% 0.07 in 28 W/m2
15:03 34 °F 32.9 °F 29.2 in East 2 mph 3 mph 96% 0.07 in 37 W/m2
15:08 34.2 °F 33.1 °F 29.2 in East 0.9 mph 3 mph 96% 0.07 in 37 W/m2
15:13 34.2 °F 33.1 °F 29.2 in East 0.9 mph 2 mph 96% 0.08 in 30 W/m2
15:18 34.3 °F 33.3 °F 29.2 in East 2 mph 3 mph 96% 0.07 in 33 W/m2
15:23 34.3 °F 33.3 °F 29.2 in Calm   2 mph 96% 0.07 in 26 W/m2
15:28 34.3 °F 33.3 °F 29.2 in East 3 mph 3 mph 96% 0.08 in 26 W/m2
15:33 34.3 °F 33.3 °F 29.2 in Calm     96% 0.09 in 21 W/m2
15:39 34.3 °F 33.3 °F 29.1 in Calm     96% 0.09 in 33 W/m2
15:44 34.3 °F 33.3 °F 29.1 in Calm     96% 0.1 in 46 W/m2
15:49 34.5 °F 33.4 °F 29.1 in NNW 2 mph 2 mph 96% 0.1 in 28 W/m2
15:54 34.5 °F 33.4 °F 29.1 in SE 2 mph 6 mph 96% 0.11 in 18 W/m2
15:59 34.5 °F 33.4 °F 29.2 in West 4 mph 4 mph 96% 0.13 in 33 W/m2
16:04 34.5 °F 33.4 °F 29.2 in West 4 mph 11 mph 96% 0.14 in 32 W/m2
16:09 37.8 °F 37 °F 29.2 in West 13 mph 21 mph 97% 0.14 in 49 W/m2
16:14 39.7 °F 39.2 °F 29.2 in WSW 10.1 mph 18 mph 98% 0.15 in 84 W/m2
16:19 39.9 °F 39.4 °F 29.2 in NW 14.1 mph 22 mph 98% 0.16 in 88 W/m2
16:24 39.7 °F 39 °F 29.2 in West 13 mph 26 mph 97% 0.17 in 79 W/m2
16:29 39.9 °F 38.7 °F 29.2 in NW 6.9 mph 24 mph 95% 0.17 in 60 W/m2
16:34 39.7 °F 38.1 °F 29.2 in West 12.1 mph 20 mph 94% 0.16 in 74 W/m2
16:39 39.6 °F 37.8 °F 29.2 in WNW 17 mph 23 mph 93% 0.16 in 62 W/m2
16:44 39 °F 36.9 °F 29.3 in WNW 12.1 mph 17 mph 92% 0.16 in 72 W/m2
16:49 38.8 °F 36.7 °F 29.3 in West 8.9 mph 16 mph 92% 0.16 in 56 W/m2
16:55 38.7 °F 36.3 °F 29.3 in WSW 13 mph 21 mph 91% 0.16 in 47 W/m2
17:00 38.5 °F 36.1 °F 29.3 in West 11 mph 24 mph 91% 0.14 in 56 W/m2
17:05 38.1 °F 35.4 °F 29.3 in WSW 31.1 mph 32 mph 90% 0.13 in 40 W/m2
17:10 38.1 °F 35.2 °F 29.3 in West 12.1 mph 16 mph 89% 0.12 in 53 W/m2
17:15 37.9 °F 35.1 °F 29.3 in West 13 mph 32 mph 89% 0.11 in 44 W/m2
17:20 37.9 °F 35.1 °F 29.3 in West 17 mph 21 mph 89% 0.11 in 40 W/m2
17:25 37.8 °F 34.5 °F 29.3 in WNW 13 mph 21 mph 88% 0.1 in 42 W/m2
17:30 37.8 °F 34.5 °F 29.4 in WSW 13 mph 23 mph 88% 0.09 in 35 W/m2
17:35 37.8 °F 34.5 °F 29.4 in West 12.1 mph 18 mph 88% 0.09 in 30 W/m2
17:40 37.8 °F 34.2 °F 29.4 in NNW 13 mph 35 mph 87% 0.09 in 25 W/m2
17:45 37.8 °F 34.2 °F 29.4 in WSW 17 mph 17 mph 87% 0.08 in 18 W/m2
17:50 37.8 °F 34.2 °F 29.4 in West 25.9 mph 34 mph 87% 0.07 in 11 W/m2
17:55 37.6 °F 34 °F 29.4 in West 19.9 mph 30 mph 87% 0.07 in 11 W/m2
18:00 37.6 °F 34 °F 29.4 in WSW 8.1 mph 20 mph 87% 0.06 in 14 W/m2
18:05 37.6 °F 34 °F 29.4 in NW 13 mph 30 mph 87% 0.06 in 14 W/m2
18:10 37.6 °F 34 °F 29.4 in West 17 mph 25 mph 87% 0.06 in 11 W/m2
18:15 37.6 °F 33.8 °F 29.4 in WNW 11 mph 19 mph 86% 0.06 in 5 W/m2
18:20 37.6 °F 34 °F 29.5 in West 12.1 mph 22 mph 87% 0.06 in 5 W/m2
18:25 37.6 °F 33.8 °F 29.5 in West 17 mph 23 mph 86% 0.06 in 0 W/m2
18:30 37.8 °F 34 °F 29.5 in SW 19.9 mph 22 mph 86% 0.06 in 0 W/m2
18:35 37.6 °F 33.8 °F 29.5 in NW 8.9 mph 16 mph 86% 0.05 in 0 W/m2
18:40 37.6 °F 33.4 °F 29.5 in West 19.9 mph 22 mph 85% 0.05 in 0 W/m2
18:45 37.6 °F 33.4 °F 29.5 in NW 14.1 mph 18 mph 85% 0.05 in 0 W/m2
18:50 37.6 °F 33.4 °F 29.5 in WNW 15 mph 27 mph 85% 0.04 in 0 W/m2
18:55 37.6 °F 33.4 °F 29.5 in NW 21 mph 23 mph 85% 0.03 in 0 W/m2
19:00 37.6 °F 33.4 °F 29.5 in WNW 11 mph 19 mph 85% 0.04 in 0 W/m2
19:05 37.4 °F 33.3 °F 29.5 in WNW 21.9 mph 25 mph 85% 0.03 in 0 W/m2
19:10 37.2 °F 33.1 °F 29.6 in WNW 13 mph 23 mph 85% 0.03 in 0 W/m2
19:15 37.2 °F 33.1 °F 29.6 in WNW 17 mph 23 mph 85% 0.03 in 0 W/m2
19:20 37.2 °F 33.1 °F 29.6 in West 12.1 mph 20 mph 85% 0.03 in 0 W/m2
19:25 37.2 °F 33.1 °F 29.6 in West 17.9 mph 30 mph 85% 0.02 in 0 W/m2
19:30 37.2 °F 33.1 °F 29.6 in NNE 17 mph 30 mph 85% 0.02 in 0 W/m2
19:35 37.2 °F 33.4 °F 29.6 in West 15 mph 20 mph 86% 0.02 in 0 W/m2
19:40 37.2 °F 33.4 °F 29.6 in West 6.9 mph 30 mph 86% 0.02 in 0 W/m2
19:45 37.2 °F 33.4 °F 29.6 in NNW 10.1 mph 22 mph 86% 0.02 in 0 W/m2
19:50 37 °F 33.3 °F 29.6 in WNW 13 mph 20 mph 86% 0.02 in 0 W/m2
19:55 37.2 °F 33.4 °F 29.6 in NW 8.9 mph 18 mph 86% 0.02 in 0 W/m2
20:00 37 °F 33.3 °F 29.7 in WSW 23 mph 23 mph 86% 0.02 in 0 W/m2
20:05 37.2 °F 33.4 °F 29.7 in West 19.9 mph 25 mph 86% 0.02 in 0 W/m2
20:10 37.2 °F 33.4 °F 29.7 in WNW 10.1 mph 17 mph 86% 0.02 in 0 W/m2
20:15 37.4 °F 33.6 °F 29.7 in West 14.1 mph 25 mph 86% 0.01 in 0 W/m2
20:20 37.4 °F 33.3 °F 29.7 in WNW 8.9 mph 13 mph 85% 0.01 in 0 W/m2
20:25 37.8 °F 33.6 °F 29.7 in West 13 mph 27 mph 85% 0.01 in 0 W/m2
20:30 37.8 °F 33.6 °F 29.7 in West 17.9 mph 23 mph 85% 0.01 in 0 W/m2
20:35 37.9 °F 33.6 °F 29.7 in WNW 10.1 mph 26 mph 84% 0.01 in 0 W/m2
20:40 37.9 °F 33.6 °F 29.7 in WNW 11 mph 19 mph 84% 0.01 in 0 W/m2
20:45 38.1 °F 33.8 °F 29.7 in WNW 11 mph 17 mph 84% 0.02 in 0 W/m2
20:50 38.1 °F 33.8 °F 29.7 in West 11 mph 16 mph 84% 0.02 in 0 W/m2
20:55 38.1 °F 33.8 °F 29.7 in NW 8.1 mph 18 mph 84% 0.01 in 0 W/m2
21:00 38.1 °F 33.8 °F 29.7 in West 14.1 mph 16 mph 84% 0.01 in 0 W/m2
21:05 37.9 °F 33.8 °F 29.8 in West 8.1 mph 18 mph 85% 0.01 in 0 W/m2
21:10 37.9 °F 33.8 °F 29.8 in West 8.1 mph 17 mph 85% 0.01 in 0 W/m2
21:15 37.9 °F 34.2 °F 29.8 in West 12.1 mph 18 mph 86% 0.01 in 0 W/m2
21:20 37.8 °F 34.2 °F 29.8 in West 6.9 mph 14 mph 87% 0.01 in 0 W/m2
21:25 37.6 °F 34 °F 29.8 in NW 8.1 mph 15 mph 87% 0.01 in 0 W/m2
21:30 37.2 °F 34 °F 29.8 in West 8.1 mph 13 mph 88% 0.01 in 0 W/m2
21:35 37.2 °F 34.3 °F 29.8 in WNW 4.9 mph 15 mph 89% 0.01 in 0 W/m2
21:41 37 °F 34.2 °F 29.8 in West 8.1 mph 17 mph 89% 0.01 in 0 W/m2
21:46 37.2 °F 34.3 °F 29.8 in WNW 11 mph 16 mph 89% 0 in 0 W/m2
21:51 37.4 °F 34.2 °F 29.8 in West 14.1 mph 14 mph 88% 0 in 0 W/m2
21:56 37.6 °F 34.3 °F 29.8 in WNW 6.9 mph 23 mph 88% 0 in 0 W/m2
22:01 37.6 °F 34.3 °F 29.8 in West 10.1 mph 17 mph 88% 0 in 0 W/m2
22:06 37.6 °F 34 °F 29.8 in WNW 11 mph 17 mph 87% 0 in 0 W/m2
22:11 37.6 °F 34 °F 29.8 in WSW 10.1 mph 13 mph 87% 0 in 0 W/m2
22:16 37.6 °F 34 °F 29.8 in WNW 11 mph 14 mph 87% 0 in 0 W/m2
22:21 37.6 °F 34 °F 29.8 in WNW 11 mph 14 mph 87% 0 in 0 W/m2
22:26 37.4 °F 33.6 °F 29.8 in West 10.1 mph 12 mph 86% 0 in 0 W/m2
22:31 37.4 °F 33.6 °F 29.8 in WSW 13 mph 13 mph 86% 0 in 0 W/m2
22:36 37.2 °F 33.8 °F 29.8 in West 17 mph 17 mph 87% 0 in 0 W/m2
22:41 37.2 °F 33.8 °F 29.9 in NW 6.9 mph 12 mph 87% 0 in 0 W/m2
22:46 37.2 °F 33.8 °F 29.9 in West 8.1 mph 14 mph 87% 0 in 0 W/m2
22:51 37 °F 33.6 °F 29.9 in WNW 12.1 mph 18 mph 87% 0 in 0 W/m2
22:56 37.2 °F 33.8 °F 29.9 in NNW 12.1 mph 14 mph 87% 0 in 0 W/m2
23:01 37 °F 33.6 °F 29.9 in NW 6 mph 18 mph 87% 0 in 0 W/m2
23:06 37 °F 33.6 °F 29.9 in West 8.1 mph 12 mph 87% 0 in 0 W/m2
23:11 37 °F 33.6 °F 29.9 in North 11 mph 17 mph 87% 0 in 0 W/m2
23:16 37 °F 33.6 °F 29.9 in SW 8.9 mph 13 mph 87% 0 in 0 W/m2
23:21 37 °F 33.3 °F 29.9 in WNW 8.9 mph 17 mph 86% 0 in 0 W/m2
23:26 37 °F 33.3 °F 29.9 in West 10.1 mph 15 mph 86% 0 in 0 W/m2
23:31 37 °F 33.3 °F 29.9 in NW 12.1 mph 12 mph 86% 0 in 0 W/m2
23:36 36.9 °F 33.1 °F 29.9 in West 6.9 mph 9 mph 86% 0 in 0 W/m2
23:41 36.9 °F 33.4 °F 29.9 in WNW 4 mph 18 mph 87% 0 in 0 W/m2
23:46 36.9 °F 33.4 °F 29.9 in WSW 11 mph 15 mph 87% 0 in 0 W/m2
23:51 36.9 °F 33.4 °F 29.9 in WSW 11 mph 13 mph 87% 0 in 0 W/m2
23:56 36.7 °F 33.3 °F 29.9 in West 12.1 mph 18 mph 87% 0 in 0 W/m2
Juneau County Weather
Compliments of Weather Underground - 4 mb